Time,TemperatureF,DewpointF,PressureIn,WindDirection,WindDirectionDegrees,WindSpeedMPH,WindSpeedGustMPH,Humidity,HourlyPrecipIn,Conditions,Clouds,dailyrainin,SolarRadiationWatts/m^2,SoftwareType,DateUTC
2013-12-13 00:02:00,43.0,34.0,-100.00,NNW,338,2.0,4.0,71,0.00,,,0.00,1.000000,,2013-12-13 07:02:00,
2013-12-13 00:42:00,42.0,34.0,-100.00,NE,53,2.0,4.0,73,0.00,,,0.00,1.000000,,2013-12-13 07:42:00,
2013-12-13 00:52:00,42.0,34.0,-100.00,NE,53,2.0,4.0,73,0.00,,,0.00,1.000000,,2013-12-13 07:52:00,
2013-12-13 01:02:00,42.0,34.0,-100.00,NE,53,2.0,4.0,73,0.00,,,0.00,1.000000,,2013-12-13 08:02:00,
2013-12-13 01:42:00,41.0,34.0,-100.00,SE,126,2.0,4.0,76,0.00,,,0.00,1.000000,,2013-12-13 08:42:00,
2013-12-13 01:52:00,41.0,34.0,-100.00,SE,126,2.0,4.0,76,0.00,,,0.00,1.000000,,2013-12-13 08:52:00,
2013-12-13 02:02:00,41.0,34.0,-100.00,SE,126,2.0,4.0,76,0.00,,,0.00,1.000000,,2013-12-13 09:02:00,
2013-12-13 02:43:00,39.0,34.0,-100.00,NNW,340,4.0,5.0,81,0.00,,,0.00,1.000000,,2013-12-13 09:43:00,
2013-12-13 02:54:00,39.0,34.0,-100.00,NNW,340,4.0,5.0,81,0.00,,,0.00,1.000000,,2013-12-13 09:54:00,
2013-12-13 03:03:00,39.0,34.0,-100.00,NNW,340,4.0,5.0,81,0.00,,,0.00,1.000000,,2013-12-13 10:03:00,
2013-12-13 03:43:00,38.0,32.0,-100.00,NE,49,3.0,5.0,79,0.00,,,0.00,1.000000,,2013-12-13 10:43:00,
2013-12-13 03:53:00,38.0,32.0,-100.00,NE,49,3.0,5.0,79,0.00,,,0.00,1.000000,,2013-12-13 10:53:00,
2013-12-13 04:02:00,38.0,32.0,-100.00,NE,49,3.0,5.0,79,0.00,,,0.00,1.000000,,2013-12-13 11:02:00,
2013-12-13 04:42:00,37.0,32.0,-100.00,NNW,339,3.0,5.0,83,0.00,,,-99.99,1.000000,,2013-12-13 11:42:00,
2013-12-13 04:53:00,37.0,32.0,-100.00,NNW,339,3.0,5.0,83,0.00,,,-99.99,1.000000,,2013-12-13 11:53:00,
2013-12-13 05:02:00,37.0,32.0,-100.00,NNW,339,3.0,5.0,83,0.00,,,-99.99,1.000000,,2013-12-13 12:02:00,
2013-12-13 05:42:00,35.0,31.0,-100.00,NNE,24,1.0,5.0,86,0.00,,,0.00,1.000000,,2013-12-13 12:42:00,
2013-12-13 05:53:00,35.0,31.0,-100.00,NNE,24,1.0,5.0,86,0.00,,,0.00,1.000000,,2013-12-13 12:53:00,
2013-12-13 06:01:00,35.0,31.0,-100.00,NNE,24,1.0,5.0,86,0.00,,,0.00,1.000000,,2013-12-13 13:01:00,
2013-12-13 06:42:00,37.0,33.0,-100.00,NNE,26,2.0,4.0,84,0.00,,,0.00,1.000000,,2013-12-13 13:42:00,
2013-12-13 06:52:00,37.0,33.0,-100.00,NNE,26,2.0,4.0,84,0.00,,,0.00,1.000000,,2013-12-13 13:52:00,
2013-12-13 07:02:00,37.0,33.0,-100.00,NNE,26,2.0,4.0,84,0.00,,,0.00,1.000000,,2013-12-13 14:02:00,
2013-12-13 07:43:00,37.0,33.0,-100.00,NNE,16,2.0,4.0,85,0.00,,,0.00,1.000000,,2013-12-13 14:43:00,
2013-12-13 07:53:00,37.0,33.0,-100.00,NNE,16,2.0,4.0,85,0.00,,,0.00,1.000000,,2013-12-13 14:53:00,
2013-12-13 08:02:00,37.0,33.0,-100.00,NNE,16,2.0,4.0,85,0.00,,,0.00,1.000000,,2013-12-13 15:02:00,
2013-12-13 08:44:00,43.0,36.0,-100.00,NNE,15,3.0,5.0,75,0.00,,,0.00,22.000000,,2013-12-13 15:44:00,
2013-12-13 08:53:00,43.0,36.0,-100.00,NNE,15,3.0,5.0,75,0.00,,,0.00,22.000000,,2013-12-13 15:53:00,
2013-12-13 09:03:00,43.0,36.0,-100.00,NNE,15,3.0,5.0,75,0.00,,,0.00,22.000000,,2013-12-13 16:03:00,
2013-12-13 09:43:00,54.0,36.0,-100.00,ENE,72,1.0,4.0,51,0.00,,,0.00,190.000000,,2013-12-13 16:43:00,
2013-12-13 09:53:00,54.0,36.0,-100.00,ENE,72,1.0,4.0,51,0.00,,,0.00,190.000000,,2013-12-13 16:53:00,
2013-12-13 10:02:00,54.0,36.0,-100.00,ENE,72,1.0,4.0,51,0.00,,,0.00,190.000000,,2013-12-13 17:02:00,
2013-12-13 10:43:00,56.0,34.0,-100.00,SSE,155,4.0,6.0,43,0.00,,,0.00,376.000000,,2013-12-13 17:43:00,
2013-12-13 10:52:00,56.0,34.0,-100.00,SSE,155,4.0,6.0,43,0.00,,,0.00,376.000000,,2013-12-13 17:52:00,
2013-12-13 11:02:00,56.0,34.0,-100.00,SSE,155,4.0,6.0,43,0.00,,,0.00,376.000000,,2013-12-13 18:02:00,
2013-12-13 11:42:00,58.0,31.0,-100.00,SSE,155,5.0,9.0,36,0.00,,,0.00,506.000000,,2013-12-13 18:42:00,
2013-12-13 11:52:00,58.0,31.0,-100.00,SSE,155,5.0,9.0,36,0.00,,,0.00,506.000000,,2013-12-13 18:52:00,
2013-12-13 12:02:00,58.0,31.0,-100.00,SSE,155,5.0,9.0,36,0.00,,,0.00,506.000000,,2013-12-13 19:02:00,
2013-12-13 12:42:00,60.0,29.0,-100.00,SW,220,4.0,7.0,31,0.00,,,0.00,581.000000,,2013-12-13 19:42:00,
2013-12-13 12:52:00,60.0,29.0,-100.00,SW,220,4.0,7.0,31,0.00,,,0.00,581.000000,,2013-12-13 19:52:00,
2013-12-13 13:02:00,60.0,29.0,-100.00,SW,220,4.0,7.0,31,0.00,,,0.00,581.000000,,2013-12-13 20:02:00,
2013-12-13 13:42:00,62.0,31.0,-100.00,SW,222,4.0,8.0,31,0.00,,,0.00,594.000000,,2013-12-13 20:42:00,
2013-12-13 13:53:00,62.0,31.0,-100.00,SW,222,4.0,8.0,31,0.00,,,0.00,594.000000,,2013-12-13 20:53:00,
2013-12-13 14:02:00,62.0,31.0,-100.00,SW,222,4.0,8.0,31,0.00,,,0.00,594.000000,,2013-12-13 21:02:00,
2013-12-13 14:43:00,62.0,30.0,-100.00,SSE,159,5.0,8.0,30,0.00,,,0.00,545.000000,,2013-12-13 21:43:00,
2013-12-13 14:53:00,62.0,30.0,-100.00,SSE,159,5.0,8.0,30,0.00,,,0.00,545.000000,,2013-12-13 21:53:00,
2013-12-13 15:03:00,62.0,30.0,-100.00,SSE,159,5.0,8.0,30,0.00,,,0.00,545.000000,,2013-12-13 22:03:00,
2013-12-13 15:42:00,64.0,31.0,-100.00,SW,223,3.0,8.0,29,0.00,,,0.00,436.000000,,2013-12-13 22:42:00,
2013-12-13 15:53:00,64.0,31.0,-100.00,SW,223,3.0,8.0,29,0.00,,,0.00,436.000000,,2013-12-13 22:53:00,
2013-12-13 16:03:00,64.0,31.0,-100.00,SW,223,3.0,8.0,29,0.00,,,0.00,436.000000,,2013-12-13 23:03:00,
2013-12-13 16:42:00,63.0,32.0,-100.00,WSW,245,5.0,10.0,31,0.00,,,0.00,282.000000,,2013-12-13 23:42:00,
2013-12-13 16:53:00,63.0,32.0,-100.00,WSW,245,5.0,10.0,31,0.00,,,0.00,282.000000,,2013-12-13 23:53:00,
2013-12-13 17:02:00,63.0,32.0,-100.00,WSW,245,5.0,10.0,31,0.00,,,0.00,282.000000,,2013-12-14 00:02:00,
2013-12-13 17:42:00,59.0,30.0,-100.00,West,260,6.0,10.0,33,0.00,,,0.00,105.000000,,2013-12-14 00:42:00,
2013-12-13 17:52:00,59.0,30.0,-100.00,West,260,6.0,10.0,33,0.00,,,0.00,105.000000,,2013-12-14 00:52:00,
2013-12-13 18:02:00,59.0,30.0,-100.00,West,260,6.0,10.0,33,0.00,,,0.00,105.000000,,2013-12-14 01:02:00,
2013-12-13 18:42:00,53.0,29.0,-100.00,SE,140,2.0,6.0,40,0.00,,,0.00,3.000000,,2013-12-14 01:42:00,
2013-12-13 18:52:00,53.0,29.0,-100.00,SE,140,2.0,6.0,40,0.00,,,0.00,3.000000,,2013-12-14 01:52:00,
2013-12-13 19:01:00,53.0,29.0,-100.00,SE,140,2.0,6.0,40,0.00,,,0.00,3.000000,,2013-12-14 02:01:00,
2013-12-13 19:42:00,49.0,33.0,-100.00,North,354,3.0,5.0,53,0.00,,,0.00,1.000000,,2013-12-14 02:42:00,
2013-12-13 19:52:00,49.0,33.0,-100.00,North,354,3.0,5.0,53,0.00,,,0.00,1.000000,,2013-12-14 02:52:00,
2013-12-13 20:02:00,49.0,33.0,-100.00,North,354,3.0,5.0,53,0.00,,,0.00,1.000000,,2013-12-14 03:02:00,
2013-12-13 20:43:00,47.0,32.0,-100.00,North,8,2.0,5.0,56,0.00,,,0.00,1.000000,,2013-12-14 03:43:00,
2013-12-13 20:54:00,47.0,32.0,-100.00,North,8,2.0,5.0,56,0.00,,,0.00,1.000000,,2013-12-14 03:54:00,
2013-12-13 21:03:00,47.0,32.0,-100.00,North,8,2.0,5.0,56,0.00,,,0.00,1.000000,,2013-12-14 04:03:00,
2013-12-13 21:43:00,45.0,32.0,-100.00,NNE,14,3.0,4.0,60,0.00,,,0.00,1.000000,,2013-12-14 04:43:00,
2013-12-13 21:53:00,45.0,32.0,-100.00,NNE,14,3.0,4.0,60,0.00,,,0.00,1.000000,,2013-12-14 04:53:00,
2013-12-13 22:03:00,45.0,32.0,-100.00,NNE,14,3.0,4.0,60,0.00,,,0.00,1.000000,,2013-12-14 05:03:00,
2013-12-13 22:42:00,44.0,32.0,-100.00,North,8,2.0,6.0,62,0.00,,,0.00,0.000000,,2013-12-14 05:42:00,
2013-12-13 22:53:00,44.0,32.0,-100.00,North,8,2.0,6.0,62,0.00,,,0.00,0.000000,,2013-12-14 05:53:00,
2013-12-13 23:02:00,44.0,32.0,-100.00,North,8,2.0,6.0,62,0.00,,,0.00,0.000000,,2013-12-14 06:02:00,
2013-12-13 23:42:00,40.0,32.0,-100.00,North,9,1.0,5.0,72,0.00,,,0.00,1.000000,,2013-12-14 06:42:00,
2013-12-13 23:52:00,40.0,32.0,-100.00,North,9,1.0,5.0,72,0.00,,,0.00,1.000000,,2013-12-14 06:52:00,